Time;durP1;ratioP1;P1;durP2;ratioP2;P2;SDS_P1;SDS_P2;PMS_P1;PMS_P2;Temp;Humidity;BMP_temperature;BMP_pressure;BME280_temperature;BME280_humidity;BME280_pressure;Samples;Min_cycle;Max_cycle;Signal;HPM_P1;HPM_P2
2021/05/25 00:00:42;;;;;;;7.18;2.22;;;;;;;18.40;64.37;93973.84;5035281;28;20022;-42
2021/05/25 00:03:08;;;;;;;2.40;1.80;;;;;;;18.34;64.75;93969.88;5034800;28;20032;-42
2021/05/25 00:05:34;;;;;;;2.17;1.90;;;;;;;18.26;65.48;93969.28;5034825;28;20030;-45
2021/05/25 00:08:00;;;;;;;2.95;1.42;;;;;;;18.17;65.32;93968.66;5034612;28;20036;-42
2021/05/25 00:10:28;;;;;;;2.03;1.67;;;;;;;18.12;65.55;93957.78;5035189;28;20298;-42
2021/05/25 00:12:53;;;;;;;3.45;3.15;;;;;;;18.07;65.63;93956.00;5035153;28;20410;-42
2021/05/25 00:15:22;;;;;;;2.90;2.05;;;;;;;18.04;66.12;93965.56;5034901;28;20021;-41
2021/05/25 00:17:48;;;;;;;2.20;1.98;;;;;;;18.06;65.94;93958.03;5032861;28;20049;-45
2021/05/25 00:20:15;;;;;;;1.80;1.70;;;;;;;18.05;66.54;93959.38;5031568;28;20026;-42
2021/05/25 00:22:41;;;;;;;2.05;1.85;;;;;;;18.07;66.71;93958.78;5033932;28;20445;-42
2021/05/25 00:25:08;;;;;;;2.17;1.85;;;;;;;17.90;67.21;93951.28;5031296;28;20048;-42
2021/05/25 00:27:34;;;;;;;2.40;2.20;;;;;;;17.86;66.93;93950.22;5013890;28;20045;-42
2021/05/25 00:29:59;;;;;;;3.17;1.77;;;;;;;17.83;67.16;93954.19;5031345;28;20053;-43
2021/05/25 00:32:25;;;;;;;2.03;1.83;;;;;;;17.80;67.57;93936.53;5031628;28;20025;-42
2021/05/25 00:34:50;;;;;;;1.67;1.55;;;;;;;17.76;67.20;93936.22;5031609;28;20009;-42
2021/05/25 00:37:16;;;;;;;7.10;2.17;;;;;;;17.76;66.96;93943.91;5031152;28;20060;-43
2021/05/25 00:39:42;;;;;;;2.70;1.90;;;;;;;17.72;67.74;93940.78;5031359;28;20040;-41
2021/05/25 00:42:07;;;;;;;1.30;1.20;;;;;;;17.76;67.64;93941.09;5031108;28;20041;-41
2021/05/25 00:44:33;;;;;;;2.70;2.05;;;;;;;17.75;67.79;93929.19;5031166;28;20022;-44
2021/05/25 00:46:58;;;;;;;2.95;2.50;;;;;;;17.62;68.20;93926.81;5031141;28;20079;-41
2021/05/25 00:49:24;;;;;;;3.03;2.10;;;;;;;17.68;67.69;93927.25;5031298;28;20033;-42
2021/05/25 00:51:49;;;;;;;2.42;2.17;;;;;;;17.60;68.60;93915.47;5028178;28;20021;-43
2021/05/25 00:54:14;;;;;;;2.58;1.75;;;;;;;17.51;68.82;93912.66;5031342;28;20022;-42
2021/05/25 00:56:40;;;;;;;2.22;1.98;;;;;;;17.48;68.89;93908.94;5031153;28;20028;-42
2021/05/25 00:59:06;;;;;;;5.25;1.42;;;;;;;17.40;68.46;93916.72;5030656;28;20025;-43
2021/05/25 01:01:32;;;;;;;2.03;1.83;;;;;;;17.39;69.27;93920.81;5012691;28;20017;-42
2021/05/25 01:03:57;;;;;;;3.40;2.25;;;;;;;17.35;69.38;93932.41;5031289;28;20025;-42
2021/05/25 01:06:23;;;;;;;3.65;1.80;;;;;;;17.36;68.96;93928.31;5031055;28;20025;-43
2021/05/25 01:08:49;;;;;;;2.60;2.40;;;;;;;17.23;69.66;93927.94;5032043;28;20048;-42
2021/05/25 01:11:17;;;;;;;1.92;1.50;;;;;;;17.33;69.22;93937.84;5030904;28;20113;-43
2021/05/25 01:13:48;;;;;;;2.70;2.28;;;;;;;17.27;68.95;93933.84;5030889;28;20414;-40
2021/05/25 01:16:15;;;;;;;3.20;1.88;;;;;;;17.38;69.19;93936.09;5028420;28;20041;-42
2021/05/25 01:18:40;;;;;;;3.20;1.85;;;;;;;17.35;69.10;93935.19;5033280;28;20116;-43
2021/05/25 01:21:07;;;;;;;1.90;1.80;;;;;;;17.26;69.38;93929.59;5050911;28;20159;-41
2021/05/25 01:23:34;;;;;;;2.50;1.50;;;;;;;17.26;69.43;93932.38;5051347;28;20033;-43
2021/05/25 01:26:00;;;;;;;3.88;2.30;;;;;;;17.23;69.78;93930.75;5051047;28;20444;-41
2021/05/25 01:28:26;;;;;;;2.20;1.77;;;;;;;17.28;68.66;93927.66;5051176;28;20112;-40
2021/05/25 01:30:53;;;;;;;3.53;1.83;;;;;;;17.18;68.76;93928.94;5049599;28;20509;-43
2021/05/25 01:33:19;;;;;;;3.65;1.80;;;;;;;17.19;69.40;93931.19;5050558;28;20116;-41
2021/05/25 01:35:45;;;;;;;5.30;2.28;;;;;;;17.10;69.67;93931.88;5050868;28;20403;-43
2021/05/25 01:38:12;;;;;;;1.95;1.75;;;;;;;17.14;69.05;93923.81;5050415;28;20032;-41
2021/05/25 01:40:38;;;;;;;2.47;2.28;;;;;;;17.11;68.60;93913.78;5044271;28;20024;-43
2021/05/25 01:43:04;;;;;;;2.05;1.90;;;;;;;17.21;68.70;93914.59;5032685;28;20029;-43
2021/05/25 01:45:31;;;;;;;2.05;1.92;;;;;;;17.14;69.26;93934.97;5044435;28;20510;-41
2021/05/25 01:47:58;;;;;;;2.20;2.00;;;;;;;16.94;69.67;93938.22;5028859;28;20057;-42
2021/05/25 01:50:25;;;;;;;2.95;2.17;;;;;;;16.92;70.45;93952.00;5030264;28;20025;-41
2021/05/25 01:52:56;;;;;;;2.05;1.73;;;;;;;16.92;69.40;93968.75;5029895;28;20029;-44
2021/05/25 01:55:32;;;;;;;1.95;1.75;;;;;;;16.87;69.68;93964.19;5027299;28;20060;-41
2021/05/25 01:58:10;;;;;;;2.00;1.63;;;;;;;16.81;68.57;93953.28;5030305;28;20030;-42
2021/05/25 02:00:38;;;;;;;2.97;1.92;;;;;;;16.87;68.92;93950.25;5029872;28;20033;-41
2021/05/25 02:03:04;;;;;;;1.88;1.73;;;;;;;16.78;68.79;93948.13;5028129;28;20487;-44
2021/05/25 02:05:31;;;;;;;1.75;1.65;;;;;;;16.59;70.30;93951.50;5031550;28;20064;-41
2021/05/25 02:07:57;;;;;;;5.00;1.50;;;;;;;16.72;69.87;93947.66;5029935;28;20036;-41
2021/05/25 02:10:24;;;;;;;2.95;1.80;;;;;;;16.51;70.49;93948.09;5029593;28;20098;-41
2021/05/25 02:12:51;;;;;;;3.00;2.45;;;;;;;16.55;70.00;93948.41;5028363;28;20036;-41
2021/05/25 02:15:17;;;;;;;1.92;1.55;;;;;;;16.51;70.10;93943.25;5032975;28;20529;-41
2021/05/25 02:17:43;;;;;;;3.22;2.20;;;;;;;16.43;70.26;93942.59;5029230;28;20045;-42
2021/05/25 02:20:09;;;;;;;2.88;1.67;;;;;;;16.50;69.18;93946.63;5029798;28;20105;-41
2021/05/25 02:22:34;;;;;;;2.45;2.25;;;;;;;16.40;70.08;93954.13;5030160;28;20095;-43
2021/05/25 02:25:00;;;;;;;2.50;1.85;;;;;;;16.48;69.71;93947.16;5029836;28;20041;-42
2021/05/25 02:27:25;;;;;;;2.35;1.92;;;;;;;16.42;69.79;93941.09;5029638;28;20025;-43
2021/05/25 02:29:51;;;;;;;3.42;1.85;;;;;;;16.42;69.39;93943.13;5029448;28;20029;-41
2021/05/25 02:32:16;;;;;;;1.63;1.35;;;;;;;16.38;69.56;93940.78;5029874;28;20029;-43
2021/05/25 02:34:41;;;;;;;2.65;2.05;;;;;;;16.30;70.20;93951.28;5029920;28;20036;-41
2021/05/25 02:37:07;;;;;;;2.45;2.00;;;;;;;16.31;70.33;93952.75;5029868;28;20079;-41
2021/05/25 02:39:32;;;;;;;3.60;3.28;;;;;;;16.34;70.12;93948.06;5029320;28;20026;-42
2021/05/25 02:41:58;;;;;;;2.60;1.80;;;;;;;16.33;70.44;93946.59;5029131;28;20430;-42
2021/05/25 02:44:23;;;;;;;2.00;1.83;;;;;;;16.23;70.57;93940.19;5029928;28;20029;-43
2021/05/25 02:46:48;;;;;;;3.40;2.22;;;;;;;15.99;71.64;93941.00;5029499;28;20029;-41
2021/05/25 02:49:14;;;;;;;3.35;1.83;;;;;;;16.04;71.18;93943.56;5029491;28;20037;-44
2021/05/25 02:51:39;;;;;;;7.40;1.98;;;;;;;15.87;71.97;93943.56;5029827;28;20029;-43
2021/05/25 02:54:05;;;;;;;9.85;2.10;;;;;;;15.66;72.58;93945.97;5029439;28;20087;-41
2021/05/25 02:56:30;;;;;;;5.78;2.10;;;;;;;15.75;72.47;93953.69;5029730;28;20029;-40
2021/05/25 02:58:56;;;;;;;4.63;1.90;;;;;;;15.74;72.83;93950.16;5029709;28;20514;-41
2021/05/25 03:01:22;;;;;;;1.98;1.80;;;;;;;15.81;72.37;93948.59;5029645;28;20526;-42
2021/05/25 03:03:47;;;;;;;2.25;1.83;;;;;;;15.83;72.33;93959.94;5029817;28;20025;-43
2021/05/25 03:06:12;;;;;;;2.38;1.65;;;;;;;15.81;72.12;93957.72;5029553;28;20053;-43
2021/05/25 03:08:38;;;;;;;2.10;1.90;;;;;;;15.80;72.07;93967.38;5029406;28;20024;-42
2021/05/25 03:11:03;;;;;;;2.50;1.92;;;;;;;15.72;72.05;93966.69;5031103;28;20036;-44
2021/05/25 03:13:29;;;;;;;7.63;2.00;;;;;;;15.78;72.17;93981.13;5049131;28;20028;-41
2021/05/25 03:15:54;;;;;;;3.90;1.75;;;;;;;15.69;71.72;93981.03;5035981;28;20033;-42
2021/05/25 03:18:20;;;;;;;4.57;1.75;;;;;;;15.64;71.51;93979.94;5029128;28;20037;-43
2021/05/25 03:20:48;;;;;;;1.88;1.60;;;;;;;15.78;71.11;93974.81;5029274;28;20033;-43
2021/05/25 03:23:13;;;;;;;2.72;1.77;;;;;;;15.68;72.48;93962.88;5011743;28;20025;-43
2021/05/25 03:25:39;;;;;;;2.63;2.03;;;;;;;15.67;72.10;93966.94;5029316;28;20029;-44
2021/05/25 03:28:05;;;;;;;4.43;2.28;;;;;;;15.73;71.78;93962.63;5028292;28;20032;-42
2021/05/25 03:30:31;;;;;;;2.47;1.65;;;;;;;15.65;71.64;93953.59;5029497;28;20021;-44
2021/05/25 03:32:58;;;;;;;2.13;1.88;;;;;;;15.71;72.59;93962.44;5029505;28;20033;-45
2021/05/25 03:35:24;;;;;;;1.70;1.60;;;;;;;15.75;72.11;93959.25;5029237;28;20026;-46
2021/05/25 03:37:50;;;;;;;2.58;1.70;;;;;;;15.88;71.88;93964.50;5029166;28;20040;-42
2021/05/25 03:40:16;;;;;;;1.90;1.67;;;;;;;15.95;71.76;93966.50;5029019;28;20033;-43
2021/05/25 03:42:46;;;;;;;2.60;2.17;;;;;;;15.97;72.24;93961.09;5029311;28;20067;-45
2021/05/25 03:45:12;;;;;;;2.10;1.60;;;;;;;15.94;71.41;93954.63;5029129;28;20059;-44
2021/05/25 03:47:38;;;;;;;4.38;2.05;;;;;;;16.11;71.03;93959.47;5029262;28;20582;-43
2021/05/25 03:50:08;;;;;;;2.72;1.73;;;;;;;15.96;70.97;93950.53;5029096;28;20025;-43
2021/05/25 03:52:41;;;;;;;2.35;1.88;;;;;;;16.24;70.41;93958.41;5029170;28;20029;-42
2021/05/25 03:55:13;;;;;;;1.63;1.50;;;;;;;16.28;70.19;93953.91;5032513;28;20026;-43
2021/05/25 04:00:05;;;;;;;2.92;1.83;;;;;;;16.24;68.78;93961.19;5032453;28;20086;-40
2021/05/25 04:02:32;;;;;;;3.13;2.45;;;;;;;16.23;69.56;93946.53;5032165;28;20029;-43
2021/05/25 04:04:57;;;;;;;2.85;2.13;;;;;;;16.47;68.09;93959.63;5032306;28;20037;-44
2021/05/25 04:07:22;;;;;;;1.60;1.50;;;;;;;16.61;68.36;93957.25;5031940;28;20029;-42
2021/05/25 04:09:48;;;;;;;1.42;1.33;;;;;;;16.62;67.88;93959.47;5032290;28;20025;-44
2021/05/25 04:12:13;;;;;;;1.77;1.20;;;;;;;16.58;67.26;93961.94;5032161;28;20022;-44
2021/05/25 04:14:39;;;;;;;1.90;1.70;;;;;;;16.61;67.16;93962.84;5032376;28;20036;-42
2021/05/25 04:17:04;;;;;;;2.13;1.92;;;;;;;16.77;67.50;93963.38;5032040;28;20053;-42
2021/05/25 04:19:30;;;;;;;1.73;1.40;;;;;;;16.80;67.21;93971.34;5031839;28;20498;-40
2021/05/25 04:21:55;;;;;;;6.53;2.35;;;;;;;16.71;66.80;93966.44;5032298;28;20063;-43
2021/05/25 04:24:21;;;;;;;3.13;1.48;;;;;;;16.72;66.85;93967.88;5032223;28;20021;-42
2021/05/25 04:26:46;;;;;;;2.05;1.90;;;;;;;16.72;67.35;93964.38;5031866;28;20103;-43
2021/05/25 04:29:11;;;;;;;1.80;1.55;;;;;;;16.90;66.06;93963.00;5031835;28;20025;-44
2021/05/25 04:31:37;;;;;;;2.25;1.77;;;;;;;16.92;65.72;93969.50;5014157;28;20029;-41
2021/05/25 04:34:03;;;;;;;1.83;1.40;;;;;;;16.97;66.18;93978.91;5032008;28;20068;-41
2021/05/25 04:36:29;;;;;;;1.45;1.30;;;;;;;17.09;66.55;93974.28;5032013;28;20056;-44
2021/05/25 04:38:54;;;;;;;4.65;2.10;;;;;;;17.27;65.05;93984.81;5031688;28;20495;-43
2021/05/25 04:41:20;;;;;;;1.70;1.60;;;;;;;17.35;64.42;93981.91;5031361;28;20033;-42
2021/05/25 04:43:45;;;;;;;1.92;1.27;;;;;;;17.43;64.37;93988.13;5031364;28;20033;-43
2021/05/25 04:46:11;;;;;;;1.52;1.42;;;;;;;17.55;64.08;93985.53;5031338;28;20041;-43
2021/05/25 04:48:36;;;;;;;2.30;1.77;;;;;;;17.53;64.34;93991.72;5031723;28;20104;-40
2021/05/25 04:51:02;;;;;;;4.22;1.63;;;;;;;17.41;64.29;94004.72;5031576;28;20040;-40
2021/05/25 04:53:27;;;;;;;1.67;1.33;;;;;;;17.32;65.26;93997.78;5031464;28;20033;-40
2021/05/25 04:55:53;;;;;;;1.88;1.70;;;;;;;17.33;64.98;93990.13;5031555;28;20026;-44
2021/05/25 04:58:18;;;;;;;2.55;1.92;;;;;;;17.51;64.22;93997.16;5031616;28;20402;-41
2021/05/25 05:00:45;;;;;;;1.58;1.48;;;;;;;17.43;65.19;93997.22;5031369;28;20145;-43
2021/05/25 05:03:10;;;;;;;1.38;1.27;;;;;;;17.29;65.61;93995.41;5031126;28;20033;-42
2021/05/25 05:05:36;;;;;;;2.63;1.38;;;;;;;17.24;65.52;94002.72;5031234;28;20048;-42
2021/05/25 05:08:01;;;;;;;1.40;1.30;;;;;;;17.34;65.69;93997.94;5034616;28;20033;-42
2021/05/25 05:10:27;;;;;;;3.17;1.42;;;;;;;17.42;65.38;94006.19;5051442;28;20067;-42
2021/05/25 05:12:53;;;;;;;1.20;1.10;;;;;;;17.43;65.70;94005.59;5051527;28;20027;-41
2021/05/25 05:15:18;;;;;;;1.30;1.20;;;;;;;17.34;65.66;94016.72;5042971;28;20079;-41
2021/05/25 05:17:44;;;;;;;2.35;1.67;;;;;;;17.42;65.57;94004.13;5031115;28;20507;-42
2021/05/25 05:20:11;;;;;;;1.80;1.70;;;;;;;17.69;65.68;94009.72;5031259;28;20033;-41
2021/05/25 05:22:37;;;;;;;1.48;1.38;;;;;;;17.60;64.49;94004.84;5031357;28;20033;-41
2021/05/25 05:25:04;;;;;;;2.05;1.85;;;;;;;17.56;64.83;94004.53;5031062;28;20036;-40
2021/05/25 05:27:29;;;;;;;2.78;2.30;;;;;;;17.73;64.93;94004.44;5030850;28;20549;-42
2021/05/25 05:29:55;;;;;;;2.13;1.63;;;;;;;17.70;64.86;94002.81;5030824;28;20029;-42
2021/05/25 05:32:20;;;;;;;4.00;1.30;;;;;;;17.68;64.55;94005.44;5030716;28;20434;-41
2021/05/25 05:34:46;;;;;;;1.80;1.60;;;;;;;17.79;65.01;94002.09;5031385;28;20119;-42
2021/05/25 05:37:11;;;;;;;1.92;1.55;;;;;;;18.04;64.31;94005.41;5030559;28;20021;-42
2021/05/25 05:39:37;;;;;;;5.35;1.55;;;;;;;18.11;63.44;94007.34;5030670;28;20063;-42
2021/05/25 05:42:02;;;;;;;1.90;1.65;;;;;;;18.28;63.26;93998.09;5030916;28;20049;-42
2021/05/25 05:44:28;;;;;;;1.42;1.33;;;;;;;18.55;63.03;94006.41;5030535;28;20035;-44
2021/05/25 05:46:54;;;;;;;1.45;1.35;;;;;;;18.81;60.62;94011.09;5030461;28;20026;-42
2021/05/25 05:49:22;;;;;;;1.65;1.33;;;;;;;18.62;61.38;93994.34;5030618;28;20033;-44
2021/05/25 05:51:48;;;;;;;0.80;0.80;;;;;;;18.94;60.65;93993.88;5030737;28;20029;-42
2021/05/25 05:54:13;;;;;;;217.88;82.32;;;;;;;18.79;60.27;93989.31;5030680;28;20525;-42
2021/05/25 05:56:39;;;;;;;434.48;196.07;;;;;;;18.94;60.81;93996.66;5030636;28;20025;-41
2021/05/25 05:59:04;;;;;;;61.47;25.95;;;;;;;19.12;59.78;93997.97;5029934;28;20044;-41
2021/05/25 06:01:30;;;;;;;243.85;100.50;;;;;;;19.12;59.58;93997.25;5030044;28;20522;-41
2021/05/25 06:03:55;;;;;;;22.58;8.82;;;;;;;19.02;58.79;93997.25;5034647;28;20081;-45
2021/05/25 06:06:21;;;;;;;53.88;16.85;;;;;;;19.01;59.51;93997.84;5030583;28;20044;-41
2021/05/25 06:08:46;;;;;;;3.70;2.38;;;;;;;18.94;58.82;93996.66;5029757;28;20057;-41
2021/05/25 06:11:12;;;;;;;6.07;2.97;;;;;;;19.12;59.95;94000.78;5029532;28;20033;-41
2021/05/25 06:13:37;;;;;;;3.75;1.55;;;;;;;19.17;58.97;93991.31;5030331;28;20032;-43
2021/05/25 06:16:03;;;;;;;1.52;1.42;;;;;;;19.26;58.55;93981.44;5029351;28;20105;-42
2021/05/25 06:18:30;;;;;;;3.92;1.02;;;;;;;19.27;58.67;93983.66;5028875;28;20033;-43
2021/05/25 06:20:56;;;;;;;1.60;1.15;;;;;;;19.16;58.10;93978.66;5029706;28;20039;-40
2021/05/25 06:23:21;;;;;;;1.05;0.95;;;;;;;19.19;59.07;93999.16;5030071;28;20022;-41
2021/05/25 06:25:47;;;;;;;2.28;1.20;;;;;;;19.19;57.98;94002.66;5030004;28;20033;-40
2021/05/25 06:28:13;;;;;;;1.40;1.25;;;;;;;19.34;58.71;94002.34;5029983;28;20029;-41
2021/05/25 06:30:38;;;;;;;3.25;1.58;;;;;;;19.28;58.91;93982.31;5030009;28;20103;-41
2021/05/25 06:33:05;;;;;;;2.17;1.48;;;;;;;19.37;58.70;94003.25;5029899;28;20117;-41
2021/05/25 06:35:32;;;;;;;12.45;1.65;;;;;;;19.50;59.46;94005.56;5030020;28;20100;-41
2021/05/25 06:37:57;;;;;;;5.28;1.75;;;;;;;19.66;59.75;93996.19;5029615;28;20029;-41
2021/05/25 06:40:23;;;;;;;1.08;1.00;;;;;;;19.96;57.52;94005.97;5018752;28;20017;-40
2021/05/25 06:42:48;;;;;;;1.58;1.33;;;;;;;20.19;56.85;93994.19;5008109;28;20533;-42
2021/05/25 06:45:14;;;;;;;1.20;1.10;;;;;;;20.26;55.84;93988.41;5007739;28;20565;-46
2021/05/25 06:47:39;;;;;;;1.55;1.30;;;;;;;19.96;57.21;93982.81;5007861;28;20041;-42
2021/05/25 06:50:06;;;;;;;0.75;0.75;;;;;;;20.19;55.73;93989.31;4990326;28;20418;-43
2021/05/25 06:52:31;;;;;;;3.45;1.58;;;;;;;20.42;55.25;93986.66;5013455;28;20079;-42
2021/05/25 06:54:59;;;;;;;2.35;1.88;;;;;;;20.60;54.69;93989.94;5027272;28;20148;-42
2021/05/25 06:57:25;;;;;;;3.40;1.45;;;;;;;20.66;54.62;93989.63;5027624;28;20752;-41
2021/05/25 06:59:50;;;;;;;1.08;0.90;;;;;;;20.80;54.41;93988.47;5029949;28;20029;-40
2021/05/25 07:02:16;;;;;;;9.52;1.13;;;;;;;20.90;54.32;93979.94;5047781;28;20465;-41
2021/05/25 07:04:41;;;;;;;1.15;1.00;;;;;;;21.08;53.82;93981.88;5047321;28;20036;-43
2021/05/25 07:07:07;;;;;;;1.50;1.20;;;;;;;21.11;54.78;93977.13;5037896;28;20430;-41
2021/05/25 07:09:32;;;;;;;1.00;1.00;;;;;;;21.23;53.99;93971.53;5027372;28;20022;-41
2021/05/25 07:12:02;;;;;;;1.63;1.35;;;;;;;21.35;52.41;93967.44;5027503;28;20387;-40
2021/05/25 07:14:28;;;;;;;2.55;1.48;;;;;;;21.40;52.02;93957.88;5027445;28;20033;-42
2021/05/25 07:16:53;;;;;;;1.92;1.73;;;;;;;21.18;52.57;93967.03;5026955;28;20049;-43
2021/05/25 07:19:19;;;;;;;1.42;1.33;;;;;;;21.23;53.74;93963.09;5027391;28;20025;-40
2021/05/25 07:21:44;;;;;;;1.08;0.98;;;;;;;21.47;52.76;93964.63;5027715;28;20755;-40
2021/05/25 07:24:10;;;;;;;2.08;1.40;;;;;;;21.51;52.60;93968.41;5028055;28;20030;-40
2021/05/25 07:26:35;;;;;;;1.92;0.98;;;;;;;21.93;51.41;93958.31;5027617;28;20422;-40
2021/05/25 07:29:01;;;;;;;2.92;0.90;;;;;;;22.21;50.27;93957.94;5030954;28;20491;-41
2021/05/25 07:31:26;;;;;;;1.10;1.00;;;;;;;22.43;49.65;93956.44;5030581;28;20033;-40
2021/05/25 07:33:52;;;;;;;2.05;1.60;;;;;;;23.15;48.73;93950.69;5029869;28;20056;-39
2021/05/25 07:36:17;;;;;;;1.10;0.98;;;;;;;23.96;46.36;93936.75;5029684;28;20422;-39
2021/05/25 07:38:43;;;;;;;1.70;1.17;;;;;;;24.53;44.48;93936.88;5029949;28;20032;-41
2021/05/25 07:41:08;;;;;;;1.15;1.05;;;;;;;25.07;43.73;93924.69;5027106;28;20033;-40
2021/05/25 07:43:34;;;;;;;2.47;1.10;;;;;;;25.75;41.47;93942.06;5027001;28;20031;-40
2021/05/25 07:46:00;;;;;;;0.80;0.80;;;;;;;26.78;39.32;93936.00;5029484;28;20103;-40
2021/05/25 07:48:27;;;;;;;1.17;1.08;;;;;;;27.23;38.19;93917.97;5029824;28;20390;-40
2021/05/25 07:50:53;;;;;;;3.25;0.90;;;;;;;27.30;38.36;93934.56;5027251;28;20029;-40
2021/05/25 07:53:19;;;;;;;0.77;0.77;;;;;;;27.96;37.92;93938.53;5030897;28;20025;-42
2021/05/25 07:55:44;;;;;;;0.80;0.80;;;;;;;28.30;36.42;93895.13;5030956;28;20518;-42
2021/05/25 07:58:10;;;;;;;2.15;1.10;;;;;;;28.98;35.35;93915.88;5031131;28;20032;-42
2021/05/25 08:00:35;;;;;;;2.45;0.98;;;;;;;28.95;35.38;93922.91;5031366;28;20067;-42
2021/05/25 08:03:01;;;;;;;1.27;0.88;;;;;;;28.40;36.00;93917.44;5031071;28;20407;-44
2021/05/25 08:05:32;;;;;;;1.23;0.80;;;;;;;27.96;38.31;93916.53;5030612;28;20457;-42
2021/05/25 08:07:57;;;;;;;0.70;0.70;;;;;;;27.62;37.36;93913.16;5029892;28;20055;-44
2021/05/25 08:10:23;;;;;;;1.00;1.00;;;;;;;26.77;39.50;93916.81;5030633;28;20479;-41
2021/05/25 08:12:49;;;;;;;1.40;1.30;;;;;;;25.50;42.30;93920.44;5030819;28;20021;-41
2021/05/25 08:15:17;;;;;;;3.78;1.73;;;;;;;25.20;43.88;93921.81;5031017;28;20105;-42
2021/05/25 08:17:55;;;;;;;1.27;1.17;;;;;;;24.91;44.76;93924.66;5030435;28;20543;-43
2021/05/25 08:20:20;;;;;;;1.05;0.98;;;;;;;25.55;44.28;93924.88;5027081;28;20089;-42
2021/05/25 08:22:48;;;;;;;21.83;8.98;;;;;;;25.91;43.72;93925.09;5030323;28;20475;-46
2021/05/25 08:25:15;;;;;;;1.20;1.08;;;;;;;26.54;42.83;93926.47;5027968;28;20080;-42
2021/05/25 08:27:41;;;;;;;4.43;1.13;;;;;;;26.82;41.09;93910.69;5030675;28;20017;-43
2021/05/25 08:30:09;;;;;;;1.63;1.52;;;;;;;27.80;39.39;93924.47;5031060;28;20105;-45
2021/05/25 08:32:34;;;;;;;1.50;1.13;;;;;;;28.08;38.56;93916.28;5031711;28;20027;-48
2021/05/25 08:35:00;;;;;;;1.70;1.40;;;;;;;28.18;38.01;93908.88;5031208;28;20097;-44
2021/05/25 08:37:26;;;;;;;1.10;1.00;;;;;;;29.18;38.20;93916.56;5021073;28;20025;-45
2021/05/25 08:39:51;;;;;;;1.13;1.02;;;;;;;29.23;36.05;93910.38;5029472;28;20024;-47
2021/05/25 08:42:17;;;;;;;1.27;1.00;;;;;;;29.59;35.83;93913.59;5030361;28;20029;-43
2021/05/25 08:44:42;;;;;;;0.73;0.73;;;;;;;29.77;35.42;93908.50;5030889;28;20030;-42
2021/05/25 08:47:08;;;;;;;1.00;0.90;;;;;;;29.68;35.08;93917.41;5032011;28;20530;-42
2021/05/25 08:49:35;;;;;;;1.05;0.82;;;;;;;29.66;33.70;93911.66;5031986;28;20102;-46
2021/05/25 08:52:03;;;;;;;0.77;0.77;;;;;;;28.84;35.81;93904.06;5030920;28;20041;-44
2021/05/25 08:54:29;;;;;;;1.00;0.70;;;;;;;28.52;36.01;93907.22;5032415;28;20105;-47
2021/05/25 08:56:55;;;;;;;1.02;1.00;;;;;;;27.63;38.10;93911.78;5040421;28;20101;-47
2021/05/25 08:59:20;;;;;;;2.63;1.48;;;;;;;27.13;38.46;93909.81;5048679;28;20025;-43
2021/05/25 09:01:46;;;;;;;1.50;1.23;;;;;;;26.68;40.39;93906.50;5051493;28;20106;-44
2021/05/25 09:04:14;;;;;;;2.03;1.27;;;;;;;26.07;42.23;93915.22;5033396;28;20029;-42
2021/05/25 09:06:42;;;;;;;1.23;0.90;;;;;;;25.62;42.10;93913.88;5049694;28;20529;-46
2021/05/25 09:09:18;;;;;;;1.45;1.33;;;;;;;24.39;45.51;93908.66;5031459;28;20044;-43
2021/05/25 09:11:58;;;;;;;2.05;1.33;;;;;;;24.52;45.98;93916.38;5031942;28;20075;-44
2021/05/25 09:14:23;;;;;;;1.25;1.13;;;;;;;24.77;45.48;93907.75;5031450;28;20033;-45
2021/05/25 09:16:49;;;;;;;1.75;1.30;;;;;;;24.96;45.02;93905.81;5029854;28;20091;-43
2021/05/25 09:19:14;;;;;;;4.43;1.27;;;;;;;24.86;45.64;93906.06;5030194;28;20041;-42
2021/05/25 09:21:40;;;;;;;2.05;1.45;;;;;;;25.15;45.74;93905.28;5013219;28;20483;-45
2021/05/25 09:24:06;;;;;;;0.88;0.88;;;;;;;25.42;43.84;93905.94;5030686;28;20032;-44
2021/05/25 09:26:34;;;;;;;1.30;1.00;;;;;;;25.60;44.02;93897.53;5013580;28;20029;-46
2021/05/25 09:29:02;;;;;;;;;;;;;;;25.62;44.83;93899.75;5032199;28;20025;-43
2021/05/25 09:31:48;;;;;;;1.92;1.20;;;;;;;25.38;44.46;93900.03;5031626;28;20370;-48
2021/05/25 09:34:20;;;;;;;1.83;1.20;;;;;;;24.73;46.42;93887.75;5030650;28;20036;-46
2021/05/25 09:37:15;;;;;;;1.17;1.08;;;;;;;24.78;46.55;93880.97;5031496;28;20116;-47
2021/05/25 09:39:40;;;;;;;2.92;1.85;;;;;;;24.89;46.51;93881.44;5010194;28;20527;-48
2021/05/25 09:42:08;;;;;;;2.97;1.60;;;;;;;24.79;46.04;93882.44;5031760;28;20033;-45
2021/05/25 09:44:34;;;;;;;1.98;1.23;;;;;;;24.65;46.62;93889.44;5031401;28;20065;-46
2021/05/25 09:47:02;;;;;;;1.40;1.17;;;;;;;24.74;46.79;93894.13;5031492;28;20388;-44
2021/05/25 09:49:31;;;;;;;1.55;1.27;;;;;;;25.08;46.58;93890.16;5031344;28;20513;-45
2021/05/25 09:52:12;;;;;;;2.25;1.50;;;;;;;25.13;46.18;93896.72;5030235;28;20068;-46
2021/05/25 09:54:37;;;;;;;3.15;1.42;;;;;;;25.51;45.40;93895.72;5011899;28;20053;-47
2021/05/25 09:57:07;;;;;;;1.27;1.00;;;;;;;25.58;44.33;93902.38;5011581;28;20054;-48
2021/05/25 09:59:34;;;;;;;1.17;1.08;;;;;;;25.42;44.45;93896.72;5010302;28;20029;-47
2021/05/25 10:02:20;;;;;;;2.92;1.15;;;;;;;25.15;44.22;93891.91;5011347;28;20050;-44
2021/05/25 10:05:06;;;;;;;1.02;0.93;;;;;;;25.19;44.92;93897.00;5011254;28;20025;-43
2021/05/25 10:07:34;;;;;;;1.23;1.05;;;;;;;24.92;45.42;93886.56;5016214;28;20521;-45
2021/05/25 10:10:02;;;;;;;1.02;1.02;;;;;;;24.84;47.09;93872.03;5031198;28;20028;-47
2021/05/25 10:12:29;;;;;;;1.40;1.25;;;;;;;24.93;46.59;93882.38;5031294;28;20044;-47
2021/05/25 10:14:55;;;;;;;1.95;1.08;;;;;;;24.85;47.23;93882.00;5031185;28;20105;-47
2021/05/25 10:20:16;;;;;;;1.88;1.20;;;;;;;24.39;49.23;93879.69;4942983;28;20047;-46
2021/05/25 10:23:02;;;;;;;1.50;1.40;;;;;;;24.87;48.76;93875.69;5030786;28;20025;-47
2021/05/25 10:25:31;;;;;;;1.48;1.10;;;;;;;25.19;47.52;93872.31;5030393;28;20038;-46
2021/05/25 10:27:58;;;;;;;2.20;1.48;;;;;;;25.43;47.07;93870.63;5030660;28;20498;-43
2021/05/25 10:30:26;;;;;;;1.50;1.38;;;;;;;25.29;46.14;93857.94;5013396;28;20044;-45
2021/05/25 10:33:07;;;;;;;1.90;1.35;;;;;;;24.78;46.59;93864.03;5030533;28;20026;-46
2021/05/25 10:35:58;;;;;;;0.85;0.85;;;;;;;24.53;47.65;93869.09;5030525;28;20033;-46
2021/05/25 10:38:27;;;;;;;2.03;1.65;;;;;;;24.68;46.77;93860.69;5030511;28;20617;-43
2021/05/25 10:40:58;;;;;;;1.30;1.20;;;;;;;24.81;47.48;93856.38;5030400;28;20037;-45
2021/05/25 10:43:35;;;;;;;1.00;0.95;;;;;;;24.56;46.92;93850.91;5030743;28;20056;-46
2021/05/25 10:46:10;;;;;;;1.75;1.42;;;;;;;23.98;48.59;93845.88;5029320;28;20039;-43
2021/05/25 10:51:51;;;;;;;2.72;1.63;;;;;;;23.80;50.04;93842.16;5050317;28;20071;-48
2021/05/25 10:54:43;;;;;;;1.30;1.10;;;;;;;23.55;49.88;93854.25;5050157;28;20532;-44
2021/05/25 10:57:28;;;;;;;5.38;1.50;;;;;;;23.34;51.18;93834.81;5050308;28;20032;-45
2021/05/25 11:00:01;;;;;;;2.63;1.48;;;;;;;23.38;52.33;93843.47;5050330;28;20039;-46
2021/05/25 11:02:50;;;;;;;1.67;1.48;;;;;;;23.61;51.85;93837.63;5050031;28;20090;-44
2021/05/25 11:05:31;;;;;;;1.50;1.30;;;;;;;23.89;50.40;93829.91;5001284;28;20076;-45
2021/05/25 11:08:17;;;;;;;1.60;1.20;;;;;;;24.27;50.34;93831.84;5037879;28;20041;-46
2021/05/25 11:10:56;;;;;;;1.85;1.48;;;;;;;24.31;50.07;93839.78;5029995;28;20498;-47
2021/05/25 11:13:25;;;;;;;1.42;1.27;;;;;;;24.44;49.45;93842.56;5012203;28;20461;-46
2021/05/25 11:16:10;;;;;;;;;;;;;;;24.96;48.49;93838.00;5030598;28;20572;-47
2021/05/25 11:18:56;;;;;;;1.77;1.30;;;;;;;25.18;48.03;93827.72;5030315;28;20321;-46
2021/05/25 11:24:35;;;;;;;1.15;1.05;;;;;;;25.95;46.97;93824.13;5000428;28;20025;-43
2021/05/25 11:27:19;;;;;;;2.75;1.20;;;;;;;26.06;45.83;93817.53;5030080;28;20036;-43
2021/05/25 11:29:57;;;;;;;0.70;0.70;;;;;;;26.12;45.16;93825.56;5030179;28;20410;-45
2021/05/25 11:32:28;;;;;;;1.23;1.13;;;;;;;25.40;45.43;93806.13;5030275;28;20026;-45
2021/05/25 11:35:10;;;;;;;1.25;1.15;;;;;;;25.22;46.84;93813.78;5029900;28;20109;-47
2021/05/25 11:37:38;;;;;;;1.27;1.17;;;;;;;25.99;47.00;93813.00;5030190;28;20029;-45
2021/05/25 11:40:12;;;;;;;1.10;1.00;;;;;;;26.00;44.28;93814.47;5029827;28;20489;-46
2021/05/25 11:42:38;;;;;;;1.20;1.10;;;;;;;25.45;45.88;93804.97;5029780;28;20056;-46
2021/05/25 11:45:08;;;;;;;2.15;1.30;;;;;;;25.22;46.66;93817.34;5033234;28;20044;-47
2021/05/25 11:47:33;;;;;;;1.58;1.48;;;;;;;25.06;48.06;93813.78;5049563;28;20155;-49